sensor_id;sensor_type;location;lat;lon;timestamp;P1;durP1;ratioP1;P2;durP2;ratioP2
69894;SDS011;57172;52.034;5.090;2023-02-18T00:00:27;52.60;;;15.98;;
69894;SDS011;57172;52.034;5.090;2023-02-18T00:02:54;49.47;;;14.95;;
69894;SDS011;57172;52.034;5.090;2023-02-18T00:05:21;50.17;;;15.10;;
69894;SDS011;57172;52.034;5.090;2023-02-18T00:07:48;51.17;;;14.60;;
69894;SDS011;57172;52.034;5.090;2023-02-18T00:10:15;50.43;;;15.93;;
69894;SDS011;57172;52.034;5.090;2023-02-18T00:12:43;57.50;;;16.20;;
69894;SDS011;57172;52.034;5.090;2023-02-18T00:15:10;44.40;;;14.95;;
69894;SDS011;57172;52.034;5.090;2023-02-18T00:17:37;57.53;;;15.52;;
69894;SDS011;57172;52.034;5.090;2023-02-18T00:20:05;45.80;;;13.52;;
69894;SDS011;57172;52.034;5.090;2023-02-18T00:22:33;52.97;;;15.03;;
69894;SDS011;57172;52.034;5.090;2023-02-18T00:25:00;54.63;;;15.60;;
69894;SDS011;57172;52.034;5.090;2023-02-18T00:27:26;55.20;;;14.55;;
69894;SDS011;57172;52.034;5.090;2023-02-18T00:29:54;41.20;;;12.80;;
69894;SDS011;57172;52.034;5.090;2023-02-18T00:32:21;48.88;;;13.93;;
69894;SDS011;57172;52.034;5.090;2023-02-18T00:34:48;46.00;;;13.80;;
69894;SDS011;57172;52.034;5.090;2023-02-18T00:37:14;50.88;;;13.60;;
69894;SDS011;57172;52.034;5.090;2023-02-18T00:39:41;34.83;;;12.60;;
69894;SDS011;57172;52.034;5.090;2023-02-18T00:42:09;45.45;;;11.65;;
69894;SDS011;57172;52.034;5.090;2023-02-18T00:44:36;44.20;;;11.82;;
69894;SDS011;57172;52.034;5.090;2023-02-18T00:47:03;36.30;;;11.80;;
69894;SDS011;57172;52.034;5.090;2023-02-18T00:49:30;42.92;;;11.75;;
69894;SDS011;57172;52.034;5.090;2023-02-18T00:51:57;44.13;;;11.57;;
69894;SDS011;57172;52.034;5.090;2023-02-18T00:54:24;62.13;;;12.20;;
69894;SDS011;57172;52.034;5.090;2023-02-18T00:56:51;34.05;;;10.13;;
69894;SDS011;57172;52.034;5.090;2023-02-18T00:59:17;36.80;;;11.17;;
69894;SDS011;57172;52.034;5.090;2023-02-18T01:01:44;33.65;;;9.18;;
69894;SDS011;57172;52.034;5.090;2023-02-18T01:04:11;30.25;;;10.15;;
69894;SDS011;57172;52.034;5.090;2023-02-18T01:06:38;41.55;;;10.02;;
69894;SDS011;57172;52.034;5.090;2023-02-18T01:09:05;34.30;;;10.23;;
69894;SDS011;57172;52.034;5.090;2023-02-18T01:11:32;38.23;;;10.47;;
69894;SDS011;57172;52.034;5.090;2023-02-18T01:13:59;26.05;;;8.88;;
69894;SDS011;57172;52.034;5.090;2023-02-18T01:16:28;33.60;;;10.98;;
69894;SDS011;57172;52.034;5.090;2023-02-18T01:18:55;40.28;;;11.02;;
69894;SDS011;57172;52.034;5.090;2023-02-18T01:21:24;40.30;;;11.00;;
69894;SDS011;57172;52.034;5.090;2023-02-18T01:23:51;42.73;;;10.90;;
69894;SDS011;57172;52.034;5.090;2023-02-18T01:26:18;36.10;;;10.60;;
69894;SDS011;57172;52.034;5.090;2023-02-18T01:28:45;41.47;;;10.70;;
69894;SDS011;57172;52.034;5.090;2023-02-18T01:31:12;41.20;;;10.75;;
69894;SDS011;57172;52.034;5.090;2023-02-18T01:33:40;48.53;;;11.38;;
69894;SDS011;57172;52.034;5.090;2023-02-18T01:36:08;45.60;;;11.53;;
69894;SDS011;57172;52.034;5.090;2023-02-18T01:38:37;37.53;;;11.48;;
69894;SDS011;57172;52.034;5.090;2023-02-18T01:41:04;44.90;;;12.98;;
69894;SDS011;57172;52.034;5.090;2023-02-18T01:43:31;47.58;;;12.85;;
69894;SDS011;57172;52.034;5.090;2023-02-18T01:46:02;52.30;;;12.48;;
69894;SDS011;57172;52.034;5.090;2023-02-18T01:48:49;52.67;;;13.27;;
69894;SDS011;57172;52.034;5.090;2023-02-18T01:51:19;52.25;;;13.77;;
69894;SDS011;57172;52.034;5.090;2023-02-18T01:56:27;47.35;;;13.10;;
69894;SDS011;57172;52.034;5.090;2023-02-18T01:58:58;51.75;;;14.10;;
69894;SDS011;57172;52.034;5.090;2023-02-18T02:01:28;49.03;;;14.37;;
69894;SDS011;57172;52.034;5.090;2023-02-18T02:03:56;40.55;;;12.48;;
69894;SDS011;57172;52.034;5.090;2023-02-18T02:06:24;56.88;;;14.57;;
69894;SDS011;57172;52.034;5.090;2023-02-18T02:08:53;47.42;;;12.95;;
69894;SDS011;57172;52.034;5.090;2023-02-18T02:11:28;48.28;;;14.82;;
69894;SDS011;57172;52.034;5.090;2023-02-18T02:14:08;57.27;;;13.87;;
69894;SDS011;57172;52.034;5.090;2023-02-18T02:16:40;51.97;;;13.43;;
69894;SDS011;57172;52.034;5.090;2023-02-18T02:24:53;38.53;;;11.68;;
69894;SDS011;57172;52.034;5.090;2023-02-18T02:27:28;50.97;;;13.73;;
69894;SDS011;57172;52.034;5.090;2023-02-18T02:35:24;54.83;;;14.38;;
69894;SDS011;57172;52.034;5.090;2023-02-18T02:37:58;60.63;;;14.43;;
69894;SDS011;57172;52.034;5.090;2023-02-18T02:40:32;54.40;;;14.20;;
69894;SDS011;57172;52.034;5.090;2023-02-18T02:43:33;42.83;;;13.80;;
69894;SDS011;57172;52.034;5.090;2023-02-18T02:46:18;43.70;;;13.25;;
69894;SDS011;57172;52.034;5.090;2023-02-18T02:49:09;36.88;;;11.55;;
69894;SDS011;57172;52.034;5.090;2023-02-18T02:54:18;46.47;;;13.30;;
69894;SDS011;57172;52.034;5.090;2023-02-18T02:56:47;44.33;;;13.18;;
69894;SDS011;57172;52.034;5.090;2023-02-18T02:59:21;39.10;;;11.85;;
69894;SDS011;57172;52.034;5.090;2023-02-18T03:02:36;46.75;;;12.52;;
69894;SDS011;57172;52.034;5.090;2023-02-18T03:04:53;45.72;;;12.07;;
69894;SDS011;57172;52.034;5.090;2023-02-18T03:13:15;39.83;;;10.43;;
69894;SDS011;57172;52.034;5.090;2023-02-18T03:21:18;22.93;;;7.40;;
69894;SDS011;57172;52.034;5.090;2023-02-18T03:23:52;25.27;;;7.50;;
69894;SDS011;57172;52.034;5.090;2023-02-18T03:26:28;19.63;;;6.22;;
69894;SDS011;57172;52.034;5.090;2023-02-18T03:28:58;20.33;;;6.57;;
69894;SDS011;57172;52.034;5.090;2023-02-18T03:31:28;18.42;;;5.93;;
69894;SDS011;57172;52.034;5.090;2023-02-18T03:34:07;15.27;;;5.40;;
69894;SDS011;57172;52.034;5.090;2023-02-18T03:36:41;20.05;;;6.47;;
69894;SDS011;57172;52.034;5.090;2023-02-18T03:39:15;21.15;;;7.10;;
69894;SDS011;57172;52.034;5.090;2023-02-18T03:41:45;15.45;;;5.07;;
69894;SDS011;57172;52.034;5.090;2023-02-18T03:44:12;16.27;;;6.13;;
69894;SDS011;57172;52.034;5.090;2023-02-18T03:46:40;15.63;;;5.67;;
69894;SDS011;57172;52.034;5.090;2023-02-18T03:49:10;15.80;;;5.10;;
69894;SDS011;57172;52.034;5.090;2023-02-18T03:51:39;14.85;;;5.13;;
69894;SDS011;57172;52.034;5.090;2023-02-18T03:54:07;15.43;;;5.25;;
69894;SDS011;57172;52.034;5.090;2023-02-18T03:56:35;17.73;;;5.95;;
69894;SDS011;57172;52.034;5.090;2023-02-18T03:59:02;13.10;;;5.33;;
69894;SDS011;57172;52.034;5.090;2023-02-18T04:01:29;15.82;;;5.70;;
69894;SDS011;57172;52.034;5.090;2023-02-18T04:03:56;16.73;;;5.63;;
69894;SDS011;57172;52.034;5.090;2023-02-18T04:06:23;13.27;;;5.20;;
69894;SDS011;57172;52.034;5.090;2023-02-18T04:08:50;13.93;;;5.45;;
69894;SDS011;57172;52.034;5.090;2023-02-18T04:11:17;12.00;;;4.83;;
69894;SDS011;57172;52.034;5.090;2023-02-18T04:13:44;13.38;;;5.72;;
69894;SDS011;57172;52.034;5.090;2023-02-18T04:16:11;12.50;;;5.65;;
69894;SDS011;57172;52.034;5.090;2023-02-18T04:18:38;11.75;;;5.25;;
69894;SDS011;57172;52.034;5.090;2023-02-18T04:21:05;10.65;;;4.70;;
69894;SDS011;57172;52.034;5.090;2023-02-18T04:23:32;13.07;;;5.13;;
69894;SDS011;57172;52.034;5.090;2023-02-18T04:25:59;14.27;;;5.63;;
69894;SDS011;57172;52.034;5.090;2023-02-18T04:28:26;11.15;;;5.03;;
69894;SDS011;57172;52.034;5.090;2023-02-18T04:30:53;11.38;;;4.70;;
69894;SDS011;57172;52.034;5.090;2023-02-18T04:33:19;13.50;;;5.20;;
69894;SDS011;57172;52.034;5.090;2023-02-18T04:35:46;11.17;;;4.63;;
69894;SDS011;57172;52.034;5.090;2023-02-18T04:38:13;10.57;;;4.50;;
69894;SDS011;57172;52.034;5.090;2023-02-18T04:40:41;13.23;;;4.50;;
69894;SDS011;57172;52.034;5.090;2023-02-18T04:43:08;8.85;;;3.90;;
69894;SDS011;57172;52.034;5.090;2023-02-18T04:45:35;10.00;;;4.35;;
69894;SDS011;57172;52.034;5.090;2023-02-18T04:48:01;10.10;;;4.27;;
69894;SDS011;57172;52.034;5.090;2023-02-18T04:50:28;12.15;;;4.63;;
69894;SDS011;57172;52.034;5.090;2023-02-18T04:52:55;10.65;;;4.28;;
69894;SDS011;57172;52.034;5.090;2023-02-18T04:55:22;12.10;;;5.13;;
69894;SDS011;57172;52.034;5.090;2023-02-18T04:57:49;13.15;;;4.38;;
69894;SDS011;57172;52.034;5.090;2023-02-18T05:00:17;10.10;;;4.33;;
69894;SDS011;57172;52.034;5.090;2023-02-18T05:02:45;10.60;;;4.30;;
69894;SDS011;57172;52.034;5.090;2023-02-18T05:05:12;9.88;;;4.40;;
69894;SDS011;57172;52.034;5.090;2023-02-18T05:07:39;11.48;;;4.13;;
69894;SDS011;57172;52.034;5.090;2023-02-18T05:10:08;10.48;;;4.57;;
69894;SDS011;57172;52.034;5.090;2023-02-18T05:12:36;11.97;;;4.97;;
69894;SDS011;57172;52.034;5.090;2023-02-18T05:15:03;14.48;;;5.45;;
69894;SDS011;57172;52.034;5.090;2023-02-18T05:17:30;11.85;;;5.50;;
69894;SDS011;57172;52.034;5.090;2023-02-18T05:19:57;17.00;;;5.88;;
69894;SDS011;57172;52.034;5.090;2023-02-18T05:22:24;15.07;;;6.53;;
69894;SDS011;57172;52.034;5.090;2023-02-18T05:24:51;16.10;;;7.03;;
69894;SDS011;57172;52.034;5.090;2023-02-18T05:27:18;22.27;;;7.63;;
69894;SDS011;57172;52.034;5.090;2023-02-18T05:29:45;19.00;;;8.00;;
69894;SDS011;57172;52.034;5.090;2023-02-18T05:32:12;15.75;;;6.47;;
69894;SDS011;57172;52.034;5.090;2023-02-18T05:34:39;12.73;;;6.00;;
69894;SDS011;57172;52.034;5.090;2023-02-18T05:37:06;13.70;;;6.13;;
69894;SDS011;57172;52.034;5.090;2023-02-18T05:39:33;16.25;;;5.88;;
69894;SDS011;57172;52.034;5.090;2023-02-18T05:41:59;14.85;;;5.85;;
69894;SDS011;57172;52.034;5.090;2023-02-18T05:44:26;11.05;;;5.28;;
69894;SDS011;57172;52.034;5.090;2023-02-18T05:47:04;13.70;;;6.05;;
69894;SDS011;57172;52.034;5.090;2023-02-18T05:49:36;11.97;;;5.83;;
69894;SDS011;57172;52.034;5.090;2023-02-18T05:52:04;15.88;;;5.97;;
69894;SDS011;57172;52.034;5.090;2023-02-18T05:54:31;16.42;;;6.78;;
69894;SDS011;57172;52.034;5.090;2023-02-18T05:56:59;15.57;;;6.75;;
69894;SDS011;57172;52.034;5.090;2023-02-18T05:59:26;17.33;;;7.35;;
69894;SDS011;57172;52.034;5.090;2023-02-18T06:01:53;19.47;;;7.27;;
69894;SDS011;57172;52.034;5.090;2023-02-18T06:04:20;20.67;;;8.20;;
69894;SDS011;57172;52.034;5.090;2023-02-18T06:06:47;16.40;;;7.00;;
69894;SDS011;57172;52.034;5.090;2023-02-18T06:09:14;16.70;;;7.57;;
69894;SDS011;57172;52.034;5.090;2023-02-18T06:11:41;19.65;;;7.53;;
69894;SDS011;57172;52.034;5.090;2023-02-18T06:14:08;16.47;;;6.93;;
69894;SDS011;57172;52.034;5.090;2023-02-18T06:16:35;15.23;;;6.78;;
69894;SDS011;57172;52.034;5.090;2023-02-18T06:19:02;19.08;;;6.50;;
69894;SDS011;57172;52.034;5.090;2023-02-18T06:21:29;25.20;;;7.45;;
69894;SDS011;57172;52.034;5.090;2023-02-18T06:23:56;16.75;;;7.03;;
69894;SDS011;57172;52.034;5.090;2023-02-18T06:26:22;18.60;;;7.43;;
69894;SDS011;57172;52.034;5.090;2023-02-18T06:28:49;21.67;;;7.72;;
69894;SDS011;57172;52.034;5.090;2023-02-18T06:31:16;21.17;;;7.68;;
69894;SDS011;57172;52.034;5.090;2023-02-18T06:33:43;17.60;;;6.43;;
69894;SDS011;57172;52.034;5.090;2023-02-18T06:36:11;16.73;;;6.38;;
69894;SDS011;57172;52.034;5.090;2023-02-18T06:38:39;15.70;;;6.70;;
69894;SDS011;57172;52.034;5.090;2023-02-18T06:41:08;25.42;;;7.38;;
69894;SDS011;57172;52.034;5.090;2023-02-18T06:43:36;23.58;;;8.38;;
69894;SDS011;57172;52.034;5.090;2023-02-18T06:46:03;22.83;;;7.70;;
69894;SDS011;57172;52.034;5.090;2023-02-18T06:48:31;17.77;;;7.18;;
69894;SDS011;57172;52.034;5.090;2023-02-18T06:50:58;15.63;;;7.23;;
69894;SDS011;57172;52.034;5.090;2023-02-18T06:53:25;25.17;;;7.95;;
69894;SDS011;57172;52.034;5.090;2023-02-18T06:55:52;20.90;;;8.00;;
69894;SDS011;57172;52.034;5.090;2023-02-18T06:58:18;24.52;;;8.30;;
69894;SDS011;57172;52.034;5.090;2023-02-18T07:00:45;25.38;;;8.88;;
69894;SDS011;57172;52.034;5.090;2023-02-18T07:03:12;19.83;;;7.67;;
69894;SDS011;57172;52.034;5.090;2023-02-18T07:05:40;26.00;;;7.78;;
69894;SDS011;57172;52.034;5.090;2023-02-18T07:08:07;19.88;;;7.38;;
69894;SDS011;57172;52.034;5.090;2023-02-18T07:10:35;23.60;;;8.70;;
69894;SDS011;57172;52.034;5.090;2023-02-18T07:13:02;24.17;;;8.98;;
69894;SDS011;57172;52.034;5.090;2023-02-18T07:15:29;23.93;;;7.80;;
69894;SDS011;57172;52.034;5.090;2023-02-18T07:17:56;28.98;;;8.65;;
69894;SDS011;57172;52.034;5.090;2023-02-18T07:20:23;21.23;;;8.43;;
69894;SDS011;57172;52.034;5.090;2023-02-18T07:22:50;22.65;;;6.85;;
69894;SDS011;57172;52.034;5.090;2023-02-18T07:25:18;22.33;;;7.15;;
69894;SDS011;57172;52.034;5.090;2023-02-18T07:27:48;16.57;;;5.83;;
69894;SDS011;57172;52.034;5.090;2023-02-18T07:30:15;15.65;;;5.70;;
69894;SDS011;57172;52.034;5.090;2023-02-18T07:32:42;24.05;;;6.60;;
69894;SDS011;57172;52.034;5.090;2023-02-18T07:35:09;13.70;;;5.70;;
69894;SDS011;57172;52.034;5.090;2023-02-18T07:37:39;18.70;;;5.63;;
69894;SDS011;57172;52.034;5.090;2023-02-18T07:40:11;16.77;;;5.73;;
69894;SDS011;57172;52.034;5.090;2023-02-18T07:42:39;20.98;;;5.30;;
69894;SDS011;57172;52.034;5.090;2023-02-18T07:45:06;19.42;;;5.22;;
69894;SDS011;57172;52.034;5.090;2023-02-18T07:47:34;21.83;;;5.03;;
69894;SDS011;57172;52.034;5.090;2023-02-18T07:50:00;17.45;;;4.57;;
69894;SDS011;57172;52.034;5.090;2023-02-18T07:52:28;25.73;;;5.27;;
69894;SDS011;57172;52.034;5.090;2023-02-18T07:54:54;19.33;;;4.40;;
69894;SDS011;57172;52.034;5.090;2023-02-18T07:57:21;16.52;;;3.50;;
69894;SDS011;57172;52.034;5.090;2023-02-18T07:59:48;22.10;;;4.22;;
69894;SDS011;57172;52.034;5.090;2023-02-18T08:02:19;16.08;;;3.30;;
69894;SDS011;57172;52.034;5.090;2023-02-18T08:04:48;15.30;;;3.20;;
69894;SDS011;57172;52.034;5.090;2023-02-18T08:07:15;15.00;;;2.90;;
69894;SDS011;57172;52.034;5.090;2023-02-18T08:09:43;20.55;;;3.00;;
69894;SDS011;57172;52.034;5.090;2023-02-18T08:12:10;15.48;;;3.10;;
69894;SDS011;57172;52.034;5.090;2023-02-18T08:14:37;12.48;;;3.28;;
69894;SDS011;57172;52.034;5.090;2023-02-18T08:17:04;16.17;;;2.27;;
69894;SDS011;57172;52.034;5.090;2023-02-18T08:19:30;11.77;;;2.95;;
69894;SDS011;57172;52.034;5.090;2023-02-18T08:22:00;12.88;;;2.45;;
69894;SDS011;57172;52.034;5.090;2023-02-18T08:24:28;18.45;;;3.05;;
69894;SDS011;57172;52.034;5.090;2023-02-18T08:26:55;15.30;;;3.05;;
69894;SDS011;57172;52.034;5.090;2023-02-18T08:29:27;15.40;;;3.00;;
69894;SDS011;57172;52.034;5.090;2023-02-18T08:31:54;13.45;;;3.13;;
69894;SDS011;57172;52.034;5.090;2023-02-18T08:34:23;9.60;;;2.63;;
69894;SDS011;57172;52.034;5.090;2023-02-18T08:36:50;12.15;;;2.70;;
69894;SDS011;57172;52.034;5.090;2023-02-18T08:39:17;13.07;;;2.70;;
69894;SDS011;57172;52.034;5.090;2023-02-18T08:41:44;17.33;;;2.53;;
69894;SDS011;57172;52.034;5.090;2023-02-18T08:44:10;19.23;;;3.10;;
69894;SDS011;57172;52.034;5.090;2023-02-18T08:46:37;12.98;;;2.60;;
69894;SDS011;57172;52.034;5.090;2023-02-18T08:49:05;11.63;;;2.30;;
69894;SDS011;57172;52.034;5.090;2023-02-18T08:51:32;8.43;;;2.35;;
69894;SDS011;57172;52.034;5.090;2023-02-18T08:53:59;10.73;;;2.30;;
69894;SDS011;57172;52.034;5.090;2023-02-18T08:56:26;15.02;;;2.92;;
69894;SDS011;57172;52.034;5.090;2023-02-18T08:58:52;14.05;;;2.50;;
69894;SDS011;57172;52.034;5.090;2023-02-18T09:01:19;10.90;;;2.25;;
69894;SDS011;57172;52.034;5.090;2023-02-18T09:03:46;8.82;;;2.38;;
69894;SDS011;57172;52.034;5.090;2023-02-18T09:06:14;15.53;;;2.23;;
69894;SDS011;57172;52.034;5.090;2023-02-18T09:08:41;10.73;;;2.38;;
69894;SDS011;57172;52.034;5.090;2023-02-18T09:11:08;12.38;;;2.38;;
69894;SDS011;57172;52.034;5.090;2023-02-18T09:13:36;10.07;;;2.53;;
69894;SDS011;57172;52.034;5.090;2023-02-18T09:16:09;13.95;;;3.10;;
69894;SDS011;57172;52.034;5.090;2023-02-18T09:18:40;8.23;;;2.10;;
69894;SDS011;57172;52.034;5.090;2023-02-18T09:21:08;12.02;;;2.88;;
69894;SDS011;57172;52.034;5.090;2023-02-18T09:23:36;16.08;;;3.25;;
69894;SDS011;57172;52.034;5.090;2023-02-18T09:26:05;13.18;;;3.13;;
69894;SDS011;57172;52.034;5.090;2023-02-18T09:28:33;7.38;;;2.50;;
69894;SDS011;57172;52.034;5.090;2023-02-18T09:33:40;13.02;;;3.08;;
69894;SDS011;57172;52.034;5.090;2023-02-18T09:36:11;11.13;;;2.90;;
69894;SDS011;57172;52.034;5.090;2023-02-18T09:38:38;13.85;;;3.25;;
69894;SDS011;57172;52.034;5.090;2023-02-18T09:41:06;13.32;;;2.90;;
69894;SDS011;57172;52.034;5.090;2023-02-18T09:43:40;12.13;;;3.07;;
69894;SDS011;57172;52.034;5.090;2023-02-18T09:46:21;16.80;;;3.30;;
69894;SDS011;57172;52.034;5.090;2023-02-18T09:48:49;14.15;;;3.58;;
69894;SDS011;57172;52.034;5.090;2023-02-18T09:51:18;12.90;;;2.80;;
69894;SDS011;57172;52.034;5.090;2023-02-18T09:53:45;16.02;;;3.60;;
69894;SDS011;57172;52.034;5.090;2023-02-18T09:56:14;16.57;;;4.20;;
69894;SDS011;57172;52.034;5.090;2023-02-18T09:58:45;18.95;;;3.80;;
69894;SDS011;57172;52.034;5.090;2023-02-18T10:01:31;16.80;;;3.80;;
69894;SDS011;57172;52.034;5.090;2023-02-18T10:04:16;14.07;;;3.30;;
69894;SDS011;57172;52.034;5.090;2023-02-18T10:06:51;15.57;;;3.40;;
69894;SDS011;57172;52.034;5.090;2023-02-18T10:11:48;13.82;;;3.33;;
69894;SDS011;57172;52.034;5.090;2023-02-18T10:14:20;12.18;;;3.20;;
69894;SDS011;57172;52.034;5.090;2023-02-18T10:16:47;17.48;;;3.03;;
69894;SDS011;57172;52.034;5.090;2023-02-18T10:21:59;15.13;;;2.97;;
69894;SDS011;57172;52.034;5.090;2023-02-18T10:26:57;13.15;;;2.88;;
69894;SDS011;57172;52.034;5.090;2023-02-18T10:29:26;17.95;;;3.22;;
69894;SDS011;57172;52.034;5.090;2023-02-18T10:34:47;16.57;;;3.43;;
69894;SDS011;57172;52.034;5.090;2023-02-18T10:46:18;10.98;;;2.50;;
69894;SDS011;57172;52.034;5.090;2023-02-18T10:51:44;12.00;;;2.72;;
69894;SDS011;57172;52.034;5.090;2023-02-18T10:54:16;11.57;;;2.67;;
69894;SDS011;57172;52.034;5.090;2023-02-18T10:56:47;16.52;;;3.10;;
69894;SDS011;57172;52.034;5.090;2023-02-18T10:59:19;13.68;;;3.03;;
69894;SDS011;57172;52.034;5.090;2023-02-18T11:04:44;10.85;;;2.83;;
69894;SDS011;57172;52.034;5.090;2023-02-18T11:07:18;11.38;;;3.15;;
69894;SDS011;57172;52.034;5.090;2023-02-18T11:09:49;17.27;;;3.38;;
69894;SDS011;57172;52.034;5.090;2023-02-18T11:12:21;16.45;;;3.53;;
69894;SDS011;57172;52.034;5.090;2023-02-18T11:15:36;16.10;;;3.33;;
69894;SDS011;57172;52.034;5.090;2023-02-18T11:17:41;14.93;;;3.40;;
69894;SDS011;57172;52.034;5.090;2023-02-18T11:25:35;12.15;;;3.10;;
69894;SDS011;57172;52.034;5.090;2023-02-18T11:30:44;7.60;;;2.30;;
69894;SDS011;57172;52.034;5.090;2023-02-18T11:33:18;13.57;;;3.40;;
69894;SDS011;57172;52.034;5.090;2023-02-18T11:35:50;14.05;;;3.22;;
69894;SDS011;57172;52.034;5.090;2023-02-18T11:38:32;13.50;;;3.20;;
69894;SDS011;57172;52.034;5.090;2023-02-18T11:41:15;9.83;;;2.73;;
69894;SDS011;57172;52.034;5.090;2023-02-18T11:43:46;13.05;;;3.30;;
69894;SDS011;57172;52.034;5.090;2023-02-18T11:46:17;13.70;;;3.88;;
69894;SDS011;57172;52.034;5.090;2023-02-18T11:48:48;15.45;;;3.28;;
69894;SDS011;57172;52.034;5.090;2023-02-18T11:51:34;14.70;;;2.97;;
69894;SDS011;57172;52.034;5.090;2023-02-18T11:54:17;9.07;;;2.80;;
69894;SDS011;57172;52.034;5.090;2023-02-18T11:59:32;13.77;;;2.85;;
69894;SDS011;57172;52.034;5.090;2023-02-18T12:02:05;10.65;;;2.97;;
69894;SDS011;57172;52.034;5.090;2023-02-18T12:04:51;8.20;;;3.00;;
69894;SDS011;57172;52.034;5.090;2023-02-18T12:07:26;11.03;;;2.93;;
69894;SDS011;57172;52.034;5.090;2023-02-18T12:09:59;14.70;;;3.00;;
69894;SDS011;57172;52.034;5.090;2023-02-18T12:12:41;16.05;;;2.80;;
69894;SDS011;57172;52.034;5.090;2023-02-18T12:15:15;14.02;;;2.95;;
69894;SDS011;57172;52.034;5.090;2023-02-18T12:26:14;8.13;;;2.20;;
69894;SDS011;57172;52.034;5.090;2023-02-18T12:31:56;11.35;;;2.40;;
69894;SDS011;57172;52.034;5.090;2023-02-18T12:58:57;10.07;;;2.60;;
69894;SDS011;57172;52.034;5.090;2023-02-18T13:12:43;7.93;;;2.70;;
69894;SDS011;57172;52.034;5.090;2023-02-18T13:15:16;11.53;;;3.03;;
69894;SDS011;57172;52.034;5.090;2023-02-18T13:17:50;9.60;;;2.67;;
69894;SDS011;57172;52.034;5.090;2023-02-18T13:20:24;12.32;;;3.25;;
69894;SDS011;57172;52.034;5.090;2023-02-18T13:23:05;12.32;;;3.08;;
69894;SDS011;57172;52.034;5.090;2023-02-18T13:25:43;13.27;;;3.33;;
69894;SDS011;57172;52.034;5.090;2023-02-18T13:28:19;13.43;;;2.93;;
69894;SDS011;57172;52.034;5.090;2023-02-18T13:34:09;11.48;;;3.38;;
69894;SDS011;57172;52.034;5.090;2023-02-18T13:39:35;9.45;;;2.50;;
69894;SDS011;57172;52.034;5.090;2023-02-18T13:42:11;12.30;;;3.00;;
69894;SDS011;57172;52.034;5.090;2023-02-18T13:47:37;8.95;;;2.90;;
69894;SDS011;57172;52.034;5.090;2023-02-18T13:55:55;11.40;;;2.83;;
69894;SDS011;57172;52.034;5.090;2023-02-18T13:58:50;12.20;;;2.75;;
69894;SDS011;57172;52.034;5.090;2023-02-18T14:01:30;10.35;;;2.90;;
69894;SDS011;57172;52.034;5.090;2023-02-18T14:04:32;13.30;;;2.80;;
69894;SDS011;57172;52.034;5.090;2023-02-18T14:10:05;13.53;;;2.80;;
69894;SDS011;57172;52.034;5.090;2023-02-18T14:12:37;10.02;;;2.72;;
69894;SDS011;57172;52.034;5.090;2023-02-18T14:25:48;7.88;;;2.55;;
69894;SDS011;57172;52.034;5.090;2023-02-18T14:31:03;10.48;;;2.40;;
69894;SDS011;57172;52.034;5.090;2023-02-18T14:39:28;8.35;;;2.40;;
69894;SDS011;57172;52.034;5.090;2023-02-18T14:42:11;8.05;;;2.70;;
69894;SDS011;57172;52.034;5.090;2023-02-18T14:44:49;14.10;;;3.08;;
69894;SDS011;57172;52.034;5.090;2023-02-18T14:50:16;9.87;;;3.20;;
69894;SDS011;57172;52.034;5.090;2023-02-18T14:55:17;10.13;;;3.40;;
69894;SDS011;57172;52.034;5.090;2023-02-18T14:58:35;16.55;;;3.63;;
69894;SDS011;57172;52.034;5.090;2023-02-18T15:00:55;12.57;;;3.70;;
69894;SDS011;57172;52.034;5.090;2023-02-18T15:03:24;11.53;;;3.47;;
69894;SDS011;57172;52.034;5.090;2023-02-18T15:05:53;17.48;;;3.40;;
69894;SDS011;57172;52.034;5.090;2023-02-18T15:08:22;9.50;;;3.00;;
69894;SDS011;57172;52.034;5.090;2023-02-18T15:10:51;12.82;;;3.33;;
69894;SDS011;57172;52.034;5.090;2023-02-18T15:13:43;10.15;;;3.20;;
69894;SDS011;57172;52.034;5.090;2023-02-18T15:16:12;14.57;;;3.20;;
69894;SDS011;57172;52.034;5.090;2023-02-18T15:18:47;8.18;;;2.92;;
69894;SDS011;57172;52.034;5.090;2023-02-18T15:21:26;10.50;;;2.97;;
69894;SDS011;57172;52.034;5.090;2023-02-18T15:26:59;11.02;;;3.53;;
69894;SDS011;57172;52.034;5.090;2023-02-18T15:29:33;14.37;;;4.00;;
69894;SDS011;57172;52.034;5.090;2023-02-18T15:32:12;10.07;;;3.47;;
69894;SDS011;57172;52.034;5.090;2023-02-18T15:34:43;11.73;;;3.35;;
69894;SDS011;57172;52.034;5.090;2023-02-18T15:37:12;8.98;;;3.63;;
69894;SDS011;57172;52.034;5.090;2023-02-18T15:39:40;13.32;;;3.30;;
69894;SDS011;57172;52.034;5.090;2023-02-18T15:42:30;11.67;;;3.60;;
69894;SDS011;57172;52.034;5.090;2023-02-18T15:47:29;13.75;;;3.40;;
69894;SDS011;57172;52.034;5.090;2023-02-18T15:49:58;11.77;;;3.30;;
69894;SDS011;57172;52.034;5.090;2023-02-18T15:52:29;10.98;;;3.45;;
69894;SDS011;57172;52.034;5.090;2023-02-18T15:58:00;11.25;;;3.20;;
69894;SDS011;57172;52.034;5.090;2023-02-18T16:00:38;13.48;;;3.90;;
69894;SDS011;57172;52.034;5.090;2023-02-18T16:05:37;11.27;;;3.67;;
69894;SDS011;57172;52.034;5.090;2023-02-18T16:08:14;11.47;;;3.63;;
69894;SDS011;57172;52.034;5.090;2023-02-18T16:10:56;9.93;;;3.63;;
69894;SDS011;57172;52.034;5.090;2023-02-18T16:13:28;15.07;;;3.72;;
69894;SDS011;57172;52.034;5.090;2023-02-18T16:15:56;11.85;;;3.55;;
69894;SDS011;57172;52.034;5.090;2023-02-18T16:18:28;17.80;;;3.80;;
69894;SDS011;57172;52.034;5.090;2023-02-18T16:20:56;15.67;;;4.10;;
69894;SDS011;57172;52.034;5.090;2023-02-18T16:23:35;12.13;;;3.33;;
69894;SDS011;57172;52.034;5.090;2023-02-18T16:26:18;12.70;;;3.55;;
69894;SDS011;57172;52.034;5.090;2023-02-18T16:28:49;14.05;;;4.15;;
69894;SDS011;57172;52.034;5.090;2023-02-18T16:31:17;15.13;;;3.83;;
69894;SDS011;57172;52.034;5.090;2023-02-18T16:33:47;9.27;;;3.27;;
69894;SDS011;57172;52.034;5.090;2023-02-18T16:36:15;19.90;;;3.95;;
69894;SDS011;57172;52.034;5.090;2023-02-18T16:38:43;14.45;;;4.35;;
69894;SDS011;57172;52.034;5.090;2023-02-18T16:41:11;12.68;;;3.75;;
69894;SDS011;57172;52.034;5.090;2023-02-18T16:43:39;17.33;;;3.17;;
69894;SDS011;57172;52.034;5.090;2023-02-18T16:46:17;12.00;;;3.53;;
69894;SDS011;57172;52.034;5.090;2023-02-18T16:48:48;12.82;;;3.90;;
69894;SDS011;57172;52.034;5.090;2023-02-18T16:54:13;13.18;;;3.40;;
69894;SDS011;57172;52.034;5.090;2023-02-18T16:56:41;12.65;;;3.72;;
69894;SDS011;57172;52.034;5.090;2023-02-18T16:59:10;23.90;;;4.60;;
69894;SDS011;57172;52.034;5.090;2023-02-18T17:01:37;17.08;;;5.00;;
69894;SDS011;57172;52.034;5.090;2023-02-18T17:04:11;16.30;;;4.80;;
69894;SDS011;57172;52.034;5.090;2023-02-18T17:06:43;18.63;;;4.93;;
69894;SDS011;57172;52.034;5.090;2023-02-18T17:09:14;18.05;;;4.95;;
69894;SDS011;57172;52.034;5.090;2023-02-18T17:11:50;18.83;;;5.37;;
69894;SDS011;57172;52.034;5.090;2023-02-18T17:14:21;17.58;;;5.45;;
69894;SDS011;57172;52.034;5.090;2023-02-18T17:16:49;20.80;;;5.30;;
69894;SDS011;57172;52.034;5.090;2023-02-18T17:19:18;18.67;;;5.50;;
69894;SDS011;57172;52.034;5.090;2023-02-18T17:21:45;21.27;;;5.50;;
69894;SDS011;57172;52.034;5.090;2023-02-18T17:24:15;18.53;;;5.20;;
69894;SDS011;57172;52.034;5.090;2023-02-18T17:26:43;20.27;;;5.95;;
69894;SDS011;57172;52.034;5.090;2023-02-18T17:29:10;17.67;;;5.68;;
69894;SDS011;57172;52.034;5.090;2023-02-18T17:31:38;19.00;;;5.93;;
69894;SDS011;57172;52.034;5.090;2023-02-18T17:34:11;17.75;;;5.57;;
69894;SDS011;57172;52.034;5.090;2023-02-18T17:36:44;19.97;;;5.23;;
69894;SDS011;57172;52.034;5.090;2023-02-18T17:39:11;20.73;;;5.38;;
69894;SDS011;57172;52.034;5.090;2023-02-18T17:41:39;22.00;;;5.90;;